sensor_id;sensor_type;location;lat;lon;timestamp;pressure;altitude;pressure_sealevel;temperature;humidity
69318;BME280;56457;52.190;4.440;2023-04-03T00:00:59;103194.13;;;4.57;100.00
69318;BME280;56457;52.190;4.440;2023-04-03T00:02:00;103199.34;;;4.57;100.00
69318;BME280;56457;52.190;4.440;2023-04-03T00:03:00;103196.66;;;4.55;100.00
69318;BME280;56457;52.190;4.440;2023-04-03T00:04:01;103193.81;;;4.51;100.00
69318;BME280;56457;52.190;4.440;2023-04-03T00:05:01;103200.78;;;4.52;100.00
69318;BME280;56457;52.190;4.440;2023-04-03T00:06:01;103193.66;;;4.48;100.00
69318;BME280;56457;52.190;4.440;2023-04-03T00:07:02;103191.06;;;4.48;100.00
69318;BME280;56457;52.190;4.440;2023-04-03T00:08:02;103196.25;;;4.48;100.00
69318;BME280;56457;52.190;4.440;2023-04-03T00:09:04;103195.25;;;4.46;100.00
69318;BME280;56457;52.190;4.440;2023-04-03T00:10:04;103199.41;;;4.42;100.00
69318;BME280;56457;52.190;4.440;2023-04-03T00:11:05;103191.44;;;4.39;100.00
69318;BME280;56457;52.190;4.440;2023-04-03T00:12:06;103192.44;;;4.41;100.00
69318;BME280;56457;52.190;4.440;2023-04-03T00:13:06;103195.91;;;4.42;100.00
69318;BME280;56457;52.190;4.440;2023-04-03T00:14:07;103196.81;;;4.42;100.00
69318;BME280;56457;52.190;4.440;2023-04-03T00:15:07;103193.22;;;4.40;100.00
69318;BME280;56457;52.190;4.440;2023-04-03T00:16:08;103199.22;;;4.39;100.00
69318;BME280;56457;52.190;4.440;2023-04-03T00:17:08;103190.59;;;4.40;100.00
69318;BME280;56457;52.190;4.440;2023-04-03T00:18:09;103201.81;;;4.39;100.00
69318;BME280;56457;52.190;4.440;2023-04-03T00:19:09;103185.41;;;4.40;100.00
69318;BME280;56457;52.190;4.440;2023-04-03T00:20:11;103196.56;;;4.38;100.00
69318;BME280;56457;52.190;4.440;2023-04-03T00:21:12;103196.47;;;4.36;100.00
69318;BME280;56457;52.190;4.440;2023-04-03T00:22:13;103203.38;;;4.36;100.00
69318;BME280;56457;52.190;4.440;2023-04-03T00:23:13;103199.22;;;4.39;100.00
69318;BME280;56457;52.190;4.440;2023-04-03T00:24:13;103198.19;;;4.36;100.00
69318;BME280;56457;52.190;4.440;2023-04-03T00:25:14;103190.28;;;4.34;100.00
69318;BME280;56457;52.190;4.440;2023-04-03T00:26:15;103206.75;;;4.35;100.00
69318;BME280;56457;52.190;4.440;2023-04-03T00:27:15;103198.06;;;4.34;100.00
69318;BME280;56457;52.190;4.440;2023-04-03T00:28:15;103204.81;;;4.30;100.00
69318;BME280;56457;52.190;4.440;2023-04-03T00:29:16;103199.78;;;4.33;100.00
69318;BME280;56457;52.190;4.440;2023-04-03T00:30:17;103203.38;;;4.36;100.00
69318;BME280;56457;52.190;4.440;2023-04-03T00:31:17;103204.16;;;4.35;100.00
69318;BME280;56457;52.190;4.440;2023-04-03T00:32:18;103199.78;;;4.33;100.00
69318;BME280;56457;52.190;4.440;2023-04-03T00:33:18;103204.63;;;4.27;100.00
69318;BME280;56457;52.190;4.440;2023-04-03T00:34:21;103200.16;;;4.25;100.00
69318;BME280;56457;52.190;4.440;2023-04-03T00:35:21;103203.81;;;4.28;100.00
69318;BME280;56457;52.190;4.440;2023-04-03T00:36:22;103205.38;;;4.25;100.00
69318;BME280;56457;52.190;4.440;2023-04-03T00:37:22;103203.59;;;4.24;100.00
69318;BME280;56457;52.190;4.440;2023-04-03T00:38:22;103213.25;;;4.26;100.00
69318;BME280;56457;52.190;4.440;2023-04-03T00:39:23;103201.00;;;4.24;100.00
69318;BME280;56457;52.190;4.440;2023-04-03T00:40:24;103206.13;;;4.22;100.00
69318;BME280;56457;52.190;4.440;2023-04-03T00:41:24;103203.41;;;4.21;100.00
69318;BME280;56457;52.190;4.440;2023-04-03T00:42:25;103213.56;;;4.16;100.00
69318;BME280;56457;52.190;4.440;2023-04-03T00:43:26;103211.94;;;4.18;100.00
69318;BME280;56457;52.190;4.440;2023-04-03T00:45:39;103206.75;;;4.18;100.00
69318;BME280;56457;52.190;4.440;2023-04-03T00:46:40;103211.94;;;4.18;100.00
69318;BME280;56457;52.190;4.440;2023-04-03T00:47:40;103209.16;;;4.15;100.00
69318;BME280;56457;52.190;4.440;2023-04-03T00:48:44;103203.94;;;4.15;100.00
69318;BME280;56457;52.190;4.440;2023-04-03T00:49:45;103213.44;;;4.15;100.00
69318;BME280;56457;52.190;4.440;2023-04-03T00:50:45;103207.38;;;4.14;100.00
69318;BME280;56457;52.190;4.440;2023-04-03T00:51:46;103207.38;;;4.14;100.00
69318;BME280;56457;52.190;4.440;2023-04-03T00:52:46;103209.34;;;4.18;100.00
69318;BME280;56457;52.190;4.440;2023-04-03T00:53:50;103198.94;;;4.18;100.00
69318;BME280;56457;52.190;4.440;2023-04-03T00:54:52;103200.91;;;4.22;100.00
69318;BME280;56457;52.190;4.440;2023-04-03T00:55:54;103206.13;;;4.22;100.00
69318;BME280;56457;52.190;4.440;2023-04-03T00:56:56;103202.50;;;4.20;100.00
69318;BME280;56457;52.190;4.440;2023-04-03T00:57:57;103204.28;;;4.21;100.00
69318;BME280;56457;52.190;4.440;2023-04-03T00:59:00;103206.75;;;4.18;100.00
69318;BME280;56457;52.190;4.440;2023-04-03T01:00:05;103212.00;;;4.20;100.00
69318;BME280;56457;52.190;4.440;2023-04-03T01:01:08;103214.06;;;4.25;100.00
69318;BME280;56457;52.190;4.440;2023-04-03T01:02:10;103203.59;;;4.24;100.00
69318;BME280;56457;52.190;4.440;2023-04-03T01:03:11;103213.25;;;4.26;100.00
69318;BME280;56457;52.190;4.440;2023-04-03T01:05:31;103210.50;;;4.23;100.00
69318;BME280;56457;52.190;4.440;2023-04-03T01:06:32;103214.06;;;4.25;100.00
69318;BME280;56457;52.190;4.440;2023-04-03T01:07:34;103213.09;;;4.23;100.00
69318;BME280;56457;52.190;4.440;2023-04-03T01:08:36;103210.31;;;4.20;100.00
69318;BME280;56457;52.190;4.440;2023-04-03T01:09:38;103215.50;;;4.20;100.00
69318;BME280;56457;52.190;4.440;2023-04-03T01:10:38;103212.28;;;4.24;100.00
69318;BME280;56457;52.190;4.440;2023-04-03T01:11:39;103214.13;;;4.27;100.00
69318;BME280;56457;52.190;4.440;2023-04-03T01:12:40;103214.88;;;4.24;100.00
69318;BME280;56457;52.190;4.440;2023-04-03T01:13:41;103210.50;;;4.23;100.00
69318;BME280;56457;52.190;4.440;2023-04-03T01:14:41;103217.56;;;4.26;100.00
69318;BME280;56457;52.190;4.440;2023-04-03T01:15:42;103214.06;;;4.25;100.00
69318;BME280;56457;52.190;4.440;2023-04-03T01:16:42;103211.72;;;4.30;100.00
69318;BME280;56457;52.190;4.440;2023-04-03T01:17:49;103215.03;;;4.27;100.00
69318;BME280;56457;52.190;4.440;2023-04-03T01:18:50;103216.50;;;4.22;100.00
69318;BME280;56457;52.190;4.440;2023-04-03T01:19:52;103217.28;;;4.21;100.00
69318;BME280;56457;52.190;4.440;2023-04-03T01:22:18;103222.75;;;4.26;100.00
69318;BME280;56457;52.190;4.440;2023-04-03T01:23:22;103220.97;;;4.25;100.00
69318;BME280;56457;52.190;4.440;2023-04-03T01:24:30;103213.91;;;4.22;100.00
69318;BME280;56457;52.190;4.440;2023-04-03T01:25:32;103220.00;;;4.23;100.00
69318;BME280;56457;52.190;4.440;2023-04-03T01:26:33;103214.69;;;4.21;100.00
69318;BME280;56457;52.190;4.440;2023-04-03T01:27:34;103220.69;;;4.20;100.00
69318;BME280;56457;52.190;4.440;2023-04-03T01:28:35;103221.25;;;4.15;100.00
69318;BME280;56457;52.190;4.440;2023-04-03T01:29:36;103215.16;;;4.14;100.00
69318;BME280;56457;52.190;4.440;2023-04-03T01:30:45;103211.59;;;4.12;100.00
69318;BME280;56457;52.190;4.440;2023-04-03T01:31:51;103213.44;;;4.15;100.00
69318;BME280;56457;52.190;4.440;2023-04-03T01:32:52;103214.34;;;4.15;100.00
69318;BME280;56457;52.190;4.440;2023-04-03T01:33:52;103218.66;;;4.15;100.00
69318;BME280;56457;52.190;4.440;2023-04-03T01:34:53;103208.09;;;4.12;100.00
69318;BME280;56457;52.190;4.440;2023-04-03T01:35:53;103214.00;;;4.09;100.00
69318;BME280;56457;52.190;4.440;2023-04-03T01:36:54;103221.09;;;4.12;100.00
69318;BME280;56457;52.190;4.440;2023-04-03T01:37:54;103214.66;;;4.05;100.00
69318;BME280;56457;52.190;4.440;2023-04-03T01:38:55;103210.44;;;4.07;100.00
69318;BME280;56457;52.190;4.440;2023-04-03T01:39:56;103214.00;;;4.09;100.00
69318;BME280;56457;52.190;4.440;2023-04-03T01:40:56;103214.72;;;4.07;100.00
69318;BME280;56457;52.190;4.440;2023-04-03T01:41:56;103214.81;;;4.08;100.00
69318;BME280;56457;52.190;4.440;2023-04-03T01:42:59;103207.28;;;4.13;100.00
69318;BME280;56457;52.190;4.440;2023-04-03T01:43:59;103214.34;;;4.15;100.00
69318;BME280;56457;52.190;4.440;2023-04-03T01:44:59;103206.31;;;4.11;100.00
69318;BME280;56457;52.190;4.440;2023-04-03T01:46:00;103215.88;;;4.12;100.00
69318;BME280;56457;52.190;4.440;2023-04-03T01:47:00;103208.38;;;4.16;100.00
69318;BME280;56457;52.190;4.440;2023-04-03T01:48:00;103211.84;;;4.17;100.00
69318;BME280;56457;52.190;4.440;2023-04-03T01:49:01;103215.06;;;4.13;100.00
69318;BME280;56457;52.190;4.440;2023-04-03T01:50:01;103203.59;;;4.09;100.00
69318;BME280;56457;52.190;4.440;2023-04-03T01:51:02;103207.09;;;4.10;100.00
69318;BME280;56457;52.190;4.440;2023-04-03T01:52:02;103212.56;;;4.14;100.00
69318;BME280;56457;52.190;4.440;2023-04-03T01:53:03;103211.66;;;4.14;100.00
69318;BME280;56457;52.190;4.440;2023-04-03T01:54:03;103212.63;;;4.16;100.00
69318;BME280;56457;52.190;4.440;2023-04-03T01:55:04;103212.47;;;4.13;100.00
69318;BME280;56457;52.190;4.440;2023-04-03T01:56:04;103208.81;;;4.09;100.00
69318;BME280;56457;52.190;4.440;2023-04-03T01:57:05;103213.22;;;4.10;100.00
69318;BME280;56457;52.190;4.440;2023-04-03T01:58:05;103215.00;;;4.11;100.00
69318;BME280;56457;52.190;4.440;2023-04-03T01:59:05;103213.44;;;4.15;100.00
69318;BME280;56457;52.190;4.440;2023-04-03T02:00:06;103218.75;;;4.16;100.00
69318;BME280;56457;52.190;4.440;2023-04-03T02:01:07;103213.03;;;4.07;100.00
69318;BME280;56457;52.190;4.440;2023-04-03T02:02:08;103217.06;;;4.17;100.00
69318;BME280;56457;52.190;4.440;2023-04-03T02:03:08;103217.28;;;4.21;100.00
69318;BME280;56457;52.190;4.440;2023-04-03T02:04:09;103222.41;;;4.20;100.00
69318;BME280;56457;52.190;4.440;2023-04-03T02:05:09;103220.19;;;4.11;100.00
69318;BME280;56457;52.190;4.440;2023-04-03T02:06:10;103214.00;;;4.09;100.00
69318;BME280;56457;52.190;4.440;2023-04-03T02:07:10;103215.34;;;4.17;100.00
69318;BME280;56457;52.190;4.440;2023-04-03T02:08:10;103218.50;;;4.12;100.00
69318;BME280;56457;52.190;4.440;2023-04-03T02:09:10;103222.59;;;4.08;100.00
69318;BME280;56457;52.190;4.440;2023-04-03T02:10:11;103220.28;;;4.13;100.00
69318;BME280;56457;52.190;4.440;2023-04-03T02:11:11;103224.50;;;4.11;100.00
69318;BME280;56457;52.190;4.440;2023-04-03T02:12:11;103222.94;;;4.14;100.00
69318;BME280;56457;52.190;4.440;2023-04-03T02:13:12;103219.31;;;4.11;100.00
69318;BME280;56457;52.190;4.440;2023-04-03T02:14:12;103217.41;;;4.08;100.00
69318;BME280;56457;52.190;4.440;2023-04-03T02:15:12;103225.03;;;4.05;100.00
69318;BME280;56457;52.190;4.440;2023-04-03T02:16:12;103227.53;;;4.03;100.00
69318;BME280;56457;52.190;4.440;2023-04-03T02:17:13;103227.44;;;4.02;100.00
69318;BME280;56457;52.190;4.440;2023-04-03T02:18:13;103225.50;;;3.98;100.00
69318;BME280;56457;52.190;4.440;2023-04-03T02:19:14;103228.25;;;4.01;100.00
69318;BME280;56457;52.190;4.440;2023-04-03T02:20:14;103227.28;;;3.99;100.00
69318;BME280;56457;52.190;4.440;2023-04-03T02:21:15;103223.69;;;3.97;100.00
69318;BME280;56457;52.190;4.440;2023-04-03T02:22:15;103224.50;;;3.96;100.00
69318;BME280;56457;52.190;4.440;2023-04-03T02:23:15;103229.69;;;3.96;100.00
69318;BME280;56457;52.190;4.440;2023-04-03T02:24:15;103227.28;;;3.99;100.00
69318;BME280;56457;52.190;4.440;2023-04-03T02:25:16;103236.78;;;3.98;100.00
69318;BME280;56457;52.190;4.440;2023-04-03T02:26:17;103242.59;;;3.94;100.00
69318;BME280;56457;52.190;4.440;2023-04-03T02:27:18;103236.06;;;4.01;100.00
69318;BME280;56457;52.190;4.440;2023-04-03T02:28:18;103238.50;;;3.98;100.00
69318;BME280;56457;52.190;4.440;2023-04-03T02:29:18;103241.78;;;3.95;100.00
69318;BME280;56457;52.190;4.440;2023-04-03T02:30:19;103235.53;;;3.92;100.00
69318;BME280;56457;52.190;4.440;2023-04-03T02:31:19;103240.00;;;3.94;100.00
69318;BME280;56457;52.190;4.440;2023-04-03T02:32:20;103235.78;;;3.96;100.00
69318;BME280;56457;52.190;4.440;2023-04-03T02:33:21;103235.63;;;3.93;100.00
69318;BME280;56457;52.190;4.440;2023-04-03T02:34:21;103232.84;;;3.90;100.00
69318;BME280;56457;52.190;4.440;2023-04-03T02:35:21;103246.09;;;3.95;100.00
69318;BME280;56457;52.190;4.440;2023-04-03T02:36:22;103240.81;;;3.93;100.00
69318;BME280;56457;52.190;4.440;2023-04-03T02:37:22;103238.91;;;3.91;100.00
69318;BME280;56457;52.190;4.440;2023-04-03T02:38:23;103232.59;;;3.86;100.00
69318;BME280;56457;52.190;4.440;2023-04-03T02:39:23;103243.06;;;3.87;100.00
69318;BME280;56457;52.190;4.440;2023-04-03T02:40:23;103235.19;;;3.86;100.00
69318;BME280;56457;52.190;4.440;2023-04-03T02:41:24;103240.28;;;3.84;100.00
69318;BME280;56457;52.190;4.440;2023-04-03T02:42:27;103244.50;;;3.82;100.00
69318;BME280;56457;52.190;4.440;2023-04-03T02:43:28;103243.59;;;3.82;100.00
69318;BME280;56457;52.190;4.440;2023-04-03T02:44:29;103238.41;;;3.82;100.00
69318;BME280;56457;52.190;4.440;2023-04-03T02:45:29;103239.13;;;3.79;100.00
69318;BME280;56457;52.190;4.440;2023-04-03T02:46:30;103246.81;;;3.77;100.00
69318;BME280;56457;52.190;4.440;2023-04-03T02:47:30;103240.56;;;3.74;100.00
69318;BME280;56457;52.190;4.440;2023-04-03T02:48:31;103245.03;;;3.76;100.00
69318;BME280;56457;52.190;4.440;2023-04-03T02:49:32;103238.78;;;3.73;100.00
69318;BME280;56457;52.190;4.440;2023-04-03T02:50:32;103236.97;;;3.72;100.00
69318;BME280;56457;52.190;4.440;2023-04-03T02:51:32;103243.03;;;3.72;100.00
69318;BME280;56457;52.190;4.440;2023-04-03T02:52:33;103239.56;;;3.72;100.00
69318;BME280;56457;52.190;4.440;2023-04-03T02:53:33;103243.78;;;3.70;100.00
69318;BME280;56457;52.190;4.440;2023-04-03T02:54:33;103241.25;;;3.71;100.00
69318;BME280;56457;52.190;4.440;2023-04-03T02:55:33;103242.28;;;3.73;100.00
69318;BME280;56457;52.190;4.440;2023-04-03T02:56:34;103245.84;;;3.75;100.00
69318;BME280;56457;52.190;4.440;2023-04-03T02:57:34;103247.47;;;3.73;100.00
69318;BME280;56457;52.190;4.440;2023-04-03T02:58:35;103249.25;;;3.74;100.00
69318;BME280;56457;52.190;4.440;2023-04-03T02:59:36;103241.25;;;3.71;100.00
69318;BME280;56457;52.190;4.440;2023-04-03T03:00:36;103242.16;;;3.72;100.00
69318;BME280;56457;52.190;4.440;2023-04-03T03:01:37;103239.31;;;3.67;100.00
69318;BME280;56457;52.190;4.440;2023-04-03T03:02:37;103242.00;;;3.69;100.00
69318;BME280;56457;52.190;4.440;2023-04-03T03:03:37;103235.00;;;3.68;100.00
69318;BME280;56457;52.190;4.440;2023-04-03T03:04:37;103243.69;;;3.68;100.00
69318;BME280;56457;52.190;4.440;2023-04-03T03:05:38;103246.66;;;3.74;100.00
69318;BME280;56457;52.190;4.440;2023-04-03T03:06:38;103244.41;;;3.66;100.00
69318;BME280;56457;52.190;4.440;2023-04-03T03:07:38;103253.88;;;3.65;100.00
69318;BME280;56457;52.190;4.440;2023-04-03T03:08:39;103248.69;;;3.65;100.00
69318;BME280;56457;52.190;4.440;2023-04-03T03:09:39;103251.28;;;3.65;100.00
69318;BME280;56457;52.190;4.440;2023-04-03T03:10:40;103248.34;;;3.59;100.00
69318;BME280;56457;52.190;4.440;2023-04-03T03:11:40;103247.53;;;3.60;100.00
69318;BME280;56457;52.190;4.440;2023-04-03T03:12:40;103253.63;;;3.61;100.00
69318;BME280;56457;52.190;4.440;2023-04-03T03:13:41;103254.34;;;3.58;100.00
69318;BME280;56457;52.190;4.440;2023-04-03T03:14:42;103248.16;;;3.56;100.00
69318;BME280;56457;52.190;4.440;2023-04-03T03:15:42;103251.81;;;3.60;100.00
69318;BME280;56457;52.190;4.440;2023-04-03T03:16:43;103249.94;;;3.57;100.00
69318;BME280;56457;52.190;4.440;2023-04-03T03:17:43;103254.34;;;3.58;100.00
69318;BME280;56457;52.190;4.440;2023-04-03T03:18:43;103260.06;;;3.53;100.00
69318;BME280;56457;52.190;4.440;2023-04-03T03:19:44;103258.28;;;3.51;100.00
69318;BME280;56457;52.190;4.440;2023-04-03T03:20:45;103253.00;;;3.50;100.00
69318;BME280;56457;52.190;4.440;2023-04-03T03:21:46;103256.41;;;3.49;100.00
69318;BME280;56457;52.190;4.440;2023-04-03T03:22:46;103256.41;;;3.49;100.00
69318;BME280;56457;52.190;4.440;2023-04-03T03:23:46;103257.38;;;3.51;100.00
69318;BME280;56457;52.190;4.440;2023-04-03T03:24:47;103256.41;;;3.49;100.00
69318;BME280;56457;52.190;4.440;2023-04-03T03:25:47;103257.09;;;3.46;100.00
69318;BME280;56457;52.190;4.440;2023-04-03T03:26:47;103254.41;;;3.45;100.00
69318;BME280;56457;52.190;4.440;2023-04-03T03:27:47;103251.28;;;3.50;100.00
69318;BME280;56457;52.190;4.440;2023-04-03T03:28:48;103257.00;;;3.45;100.00
69318;BME280;56457;52.190;4.440;2023-04-03T03:29:48;103259.31;;;3.40;100.00
69318;BME280;56457;52.190;4.440;2023-04-03T03:30:48;103256.84;;;3.42;100.00
69318;BME280;56457;52.190;4.440;2023-04-03T03:31:49;103256.84;;;3.42;100.00
69318;BME280;56457;52.190;4.440;2023-04-03T03:32:49;103259.16;;;3.37;100.00
69318;BME280;56457;52.190;4.440;2023-04-03T03:33:49;103260.03;;;3.38;100.00
69318;BME280;56457;52.190;4.440;2023-04-03T03:34:50;103262.56;;;3.36;100.00
69318;BME280;56457;52.190;4.440;2023-04-03T03:35:50;103263.34;;;3.35;100.00
69318;BME280;56457;52.190;4.440;2023-04-03T03:36:51;103259.97;;;3.36;100.00
69318;BME280;56457;52.190;4.440;2023-04-03T03:37:51;103261.75;;;3.37;100.00
69318;BME280;56457;52.190;4.440;2023-04-03T03:38:51;103258.25;;;3.37;100.00
69318;BME280;56457;52.190;4.440;2023-04-03T03:39:52;103261.84;;;3.39;100.00
69318;BME280;56457;52.190;4.440;2023-04-03T03:40:52;103265.31;;;3.39;100.00
69318;BME280;56457;52.190;4.440;2023-04-03T03:41:53;103262.63;;;3.38;100.00
69318;BME280;56457;52.190;4.440;2023-04-03T03:42:53;103265.94;;;3.35;100.00
69318;BME280;56457;52.190;4.440;2023-04-03T03:43:53;103265.03;;;3.35;100.00
69318;BME280;56457;52.190;4.440;2023-04-03T03:44:54;103265.03;;;3.35;100.00
69318;BME280;56457;52.190;4.440;2023-04-03T03:45:54;103267.53;;;3.33;100.00
69318;BME280;56457;52.190;4.440;2023-04-03T03:46:55;103260.75;;;3.35;100.00
69318;BME280;56457;52.190;4.440;2023-04-03T03:47:56;103271.84;;;3.33;100.00
69318;BME280;56457;52.190;4.440;2023-04-03T03:48:56;103267.19;;;3.27;100.00
69318;BME280;56457;52.190;4.440;2023-04-03T03:49:56;103269.06;;;3.30;100.00
69318;BME280;56457;52.190;4.440;2023-04-03T03:50:57;103266.28;;;3.27;100.00
69318;BME280;56457;52.190;4.440;2023-04-03T03:51:57;103256.50;;;3.22;100.00
69318;BME280;56457;52.190;4.440;2023-04-03T03:52:57;103261.00;;;3.25;100.00
69318;BME280;56457;52.190;4.440;2023-04-03T03:53:57;103261.09;;;3.27;100.00
69318;BME280;56457;52.190;4.440;2023-04-03T03:54:58;103265.56;;;3.29;100.00
69318;BME280;56457;52.190;4.440;2023-04-03T03:55:58;103269.06;;;3.30;100.00
69318;BME280;56457;52.190;4.440;2023-04-03T03:56:58;103262.97;;;3.29;100.00
69318;BME280;56457;52.190;4.440;2023-04-03T03:57:59;103264.66;;;3.29;100.00
69318;BME280;56457;52.190;4.440;2023-04-03T03:59:01;103260.19;;;3.26;100.00
69318;BME280;56457;52.190;4.440;2023-04-03T04:00:01;103261.81;;;3.24;100.00
69318;BME280;56457;52.190;4.440;2023-04-03T04:01:02;103260.56;;;3.17;100.00
69318;BME280;56457;52.190;4.440;2023-04-03T04:02:03;103267.00;;;3.24;100.00
69318;BME280;56457;52.190;4.440;2023-04-03T04:03:03;103262.72;;;3.24;100.00
69318;BME280;56457;52.190;4.440;2023-04-03T04:04:04;103266.38;;;3.28;100.00
69318;BME280;56457;52.190;4.440;2023-04-03T04:05:04;103260.50;;;3.31;100.00
69318;BME280;56457;52.190;4.440;2023-04-03T04:06:04;103258.78;;;3.31;100.00
69318;BME280;56457;52.190;4.440;2023-04-03T04:07:05;103268.06;;;3.28;100.00
69318;BME280;56457;52.190;4.440;2023-04-03T04:08:05;103267.19;;;3.27;100.00
69318;BME280;56457;52.190;4.440;2023-04-03T04:09:05;103260.91;;;3.23;100.00
69318;BME280;56457;52.190;4.440;2023-04-03T04:10:06;103265.22;;;3.23;100.00
69318;BME280;56457;52.190;4.440;2023-04-03T04:11:06;103268.59;;;3.22;100.00
69318;BME280;56457;52.190;4.440;2023-04-03T04:12:07;103263.16;;;3.17;100.00
69318;BME280;56457;52.190;4.440;2023-04-03T04:13:07;103264.03;;;3.18;100.00
69318;BME280;56457;52.190;4.440;2023-04-03T04:14:08;103276.28;;;3.20;100.00
69318;BME280;56457;52.190;4.440;2023-04-03T04:15:10;103266.72;;;3.19;100.00
69318;BME280;56457;52.190;4.440;2023-04-03T04:16:11;103264.03;;;3.18;100.00
69318;BME280;56457;52.190;4.440;2023-04-03T04:17:11;103270.63;;;3.13;100.00
69318;BME280;56457;52.190;4.440;2023-04-03T04:18:11;103276.72;;;3.13;100.00
69318;BME280;56457;52.190;4.440;2023-04-03T04:19:11;103274.13;;;3.13;100.00
69318;BME280;56457;52.190;4.440;2023-04-03T04:20:12;103274.03;;;3.12;100.00
69318;BME280;56457;52.190;4.440;2023-04-03T04:21:12;103273.31;;;3.14;100.00
69318;BME280;56457;52.190;4.440;2023-04-03T04:22:12;103269.09;;;3.16;100.00
69318;BME280;56457;52.190;4.440;2023-04-03T04:23:13;103278.78;;;3.19;100.00
69318;BME280;56457;52.190;4.440;2023-04-03T04:24:13;103282.81;;;3.14;100.00
69318;BME280;56457;52.190;4.440;2023-04-03T04:25:13;103275.00;;;3.14;100.00
69318;BME280;56457;52.190;4.440;2023-04-03T04:26:14;103276.72;;;3.13;100.00
69318;BME280;56457;52.190;4.440;2023-04-03T04:27:14;103272.50;;;3.15;100.00
69318;BME280;56457;52.190;4.440;2023-04-03T04:28:16;103277.53;;;3.12;100.00
69318;BME280;56457;52.190;4.440;2023-04-03T04:29:16;103280.94;;;3.11;100.00
69318;BME280;56457;52.190;4.440;2023-04-03T04:30:16;103279.84;;;3.08;100.00
69318;BME280;56457;52.190;4.440;2023-04-03T04:31:16;103281.81;;;3.12;100.00
69318;BME280;56457;52.190;4.440;2023-04-03T04:32:17;103275.00;;;3.14;100.00
69318;BME280;56457;52.190;4.440;2023-04-03T04:33:17;103284.50;;;3.13;100.00
69318;BME280;56457;52.190;4.440;2023-04-03T04:34:17;103285.47;;;3.15;100.00
69318;BME280;56457;52.190;4.440;2023-04-03T04:35:18;103288.06;;;3.15;100.00
69318;BME280;56457;52.190;4.440;2023-04-03T04:36:18;103280.03;;;3.11;100.00
69318;BME280;56457;52.190;4.440;2023-04-03T04:37:18;103284.13;;;3.07;100.00
69318;BME280;56457;52.190;4.440;2023-04-03T04:38:18;103278.94;;;3.07;100.00
69318;BME280;56457;52.190;4.440;2023-04-03T04:39:19;103282.34;;;3.06;100.00
69318;BME280;56457;52.190;4.440;2023-04-03T04:40:19;103281.44;;;3.06;100.00
69318;BME280;56457;52.190;4.440;2023-04-03T04:41:20;103282.34;;;3.06;100.00
69318;BME280;56457;52.190;4.440;2023-04-03T04:42:22;103274.56;;;3.06;100.00
69318;BME280;56457;52.190;4.440;2023-04-03T04:43:22;103281.31;;;3.04;100.00
69318;BME280;56457;52.190;4.440;2023-04-03T04:44:22;103279.66;;;3.05;100.00
69318;BME280;56457;52.190;4.440;2023-04-03T04:45:23;103286.88;;;3.10;100.00
69318;BME280;56457;52.190;4.440;2023-04-03T04:46:23;103289.31;;;3.07;100.00
69318;BME280;56457;52.190;4.440;2023-04-03T04:47:23;103286.13;;;3.11;100.00
69318;BME280;56457;52.190;4.440;2023-04-03T04:48:24;103289.59;;;3.12;100.00
69318;BME280;56457;52.190;4.440;2023-04-03T04:49:24;103287.69;;;3.09;100.00
69318;BME280;56457;52.190;4.440;2023-04-03T04:50:25;103281.53;;;3.07;100.00
69318;BME280;56457;52.190;4.440;2023-04-03T04:51:25;103289.22;;;3.06;100.00
69318;BME280;56457;52.190;4.440;2023-04-03T04:52:25;103283.22;;;3.07;100.00
69318;BME280;56457;52.190;4.440;2023-04-03T04:53:25;103285.75;;;3.05;100.00
69318;BME280;56457;52.190;4.440;2023-04-03T04:54:26;103285.63;;;3.04;100.00
69318;BME280;56457;52.190;4.440;2023-04-03T04:55:26;103293.53;;;3.05;100.00
69318;BME280;56457;52.190;4.440;2023-04-03T04:56:26;103291.59;;;3.03;100.00
69318;BME280;56457;52.190;4.440;2023-04-03T04:57:27;103290.94;;;3.05;100.00
69318;BME280;56457;52.190;4.440;2023-04-03T04:58:27;103297.91;;;3.06;100.00
69318;BME280;56457;52.190;4.440;2023-04-03T04:59:27;103291.69;;;3.04;100.00
69318;BME280;56457;52.190;4.440;2023-04-03T05:00:28;103302.63;;;2.99;100.00
69318;BME280;56457;52.190;4.440;2023-04-03T05:01:28;103293.13;;;2.99;100.00
69318;BME280;56457;52.190;4.440;2023-04-03T05:02:29;103292.34;;;3.00;100.00
69318;BME280;56457;52.190;4.440;2023-04-03T05:03:29;103297.31;;;2.97;100.00
69318;BME280;56457;52.190;4.440;2023-04-03T05:04:30;103305.22;;;2.99;100.00
69318;BME280;56457;52.190;4.440;2023-04-03T05:05:30;103301.59;;;2.96;100.00
69318;BME280;56457;52.190;4.440;2023-04-03T05:06:30;103301.09;;;3.02;100.00
69318;BME280;56457;52.190;4.440;2023-04-03T05:07:31;103299.47;;;3.04;100.00
69318;BME280;56457;52.190;4.440;2023-04-03T05:08:32;103303.09;;;3.06;100.00
69318;BME280;56457;52.190;4.440;2023-04-03T05:09:32;103308.97;;;3.04;100.00
69318;BME280;56457;52.190;4.440;2023-04-03T05:10:33;103298.72;;;3.05;100.00
69318;BME280;56457;52.190;4.440;2023-04-03T05:11:33;103303.25;;;3.09;100.00
69318;BME280;56457;52.190;4.440;2023-04-03T05:12:33;103300.66;;;3.09;100.00
69318;BME280;56457;52.190;4.440;2023-04-03T05:13:34;103302.19;;;3.06;100.00
69318;BME280;56457;52.190;4.440;2023-04-03T05:14:34;103301.47;;;3.08;100.00
69318;BME280;56457;52.190;4.440;2023-04-03T05:15:34;103304.16;;;3.10;100.00
69318;BME280;56457;52.190;4.440;2023-04-03T05:16:34;103303.91;;;3.05;100.00
69318;BME280;56457;52.190;4.440;2023-04-03T05:17:35;103305.47;;;3.03;100.00
69318;BME280;56457;52.190;4.440;2023-04-03T05:18:35;103300.59;;;3.08;100.00
69318;BME280;56457;52.190;4.440;2023-04-03T05:19:36;103312.06;;;2.98;100.00
69318;BME280;56457;52.190;4.440;2023-04-03T05:20:36;103306.63;;;2.93;100.00
69318;BME280;56457;52.190;4.440;2023-04-03T05:21:37;103311.28;;;2.99;100.00